createdAt,value
2018-11-13T00:00:29.435Z,60.56
2018-11-13T00:02:58.088Z,60.20
2018-11-13T00:05:27.174Z,60.45
2018-11-13T00:07:55.699Z,60.59
2018-11-13T00:10:24.312Z,60.33
2018-11-13T00:12:52.877Z,60.09
2018-11-13T00:15:21.379Z,59.56
2018-11-13T00:17:49.883Z,60.65
2018-11-13T00:20:19.213Z,60.20
2018-11-13T00:22:47.698Z,60.62
2018-11-13T00:25:17.372Z,60.43
2018-11-13T00:27:46.083Z,60.21
2018-11-13T00:30:17.334Z,60.25
2018-11-13T00:32:45.884Z,60.08
2018-11-13T00:35:15.525Z,59.99
2018-11-13T00:37:44.665Z,60.39
2018-11-13T00:40:13.949Z,59.95
2018-11-13T00:42:43.510Z,61.08
2018-11-13T00:45:12.175Z,60.33
2018-11-13T00:47:40.679Z,60.06
2018-11-13T00:50:12.880Z,60.36
2018-11-13T00:52:42.147Z,59.88
2018-11-13T00:55:11.062Z,60.45
2018-11-13T00:57:39.837Z,60.51
2018-11-13T01:00:10.903Z,60.39
2018-11-13T01:02:39.546Z,60.40
2018-11-13T01:05:10.276Z,60.52
2018-11-13T01:07:38.833Z,60.79
2018-11-13T01:10:08.667Z,60.76
2018-11-13T01:12:37.247Z,61.45
2018-11-13T01:15:06.427Z,61.18
2018-11-13T01:17:34.992Z,61.28
2018-11-13T01:20:03.672Z,61.28
2018-11-13T01:22:32.331Z,61.71
2018-11-13T01:25:00.908Z,61.54
2018-11-13T01:27:29.559Z,61.46
2018-11-13T01:29:59.002Z,61.98
2018-11-13T01:32:28.947Z,61.65
2018-11-13T01:34:57.656Z,61.89
2018-11-13T01:37:26.455Z,61.45
2018-11-13T01:39:55.468Z,61.58
2018-11-13T01:42:24.872Z,61.04
2018-11-13T01:44:53.478Z,60.87
2018-11-13T01:47:22.101Z,61.13
2018-11-13T01:49:50.706Z,61.22
2018-11-13T01:52:19.604Z,60.99
2018-11-13T01:54:48.237Z,60.84
2018-11-13T01:57:16.941Z,61.38
2018-11-13T01:59:45.647Z,61.11
2018-11-13T02:02:14.478Z,62.04
2018-11-13T02:04:43.267Z,60.95
2018-11-13T02:07:11.942Z,60.85
2018-11-13T02:09:40.629Z,61.06
2018-11-13T02:12:09.285Z,60.96
2018-11-13T02:14:37.929Z,61.71
2018-11-13T02:17:07.409Z,61.64
2018-11-13T02:19:36.106Z,60.80
2018-11-13T02:22:04.824Z,61.60
2018-11-13T02:24:33.421Z,61.08
2018-11-13T02:27:02.060Z,61.43
2018-11-13T02:29:30.698Z,61.78
2018-11-13T02:31:59.399Z,61.65
2018-11-13T02:34:28.252Z,61.40
2018-11-13T02:36:57.008Z,62.16
2018-11-13T02:39:25.727Z,62.22
2018-11-13T02:41:54.444Z,62.48
2018-11-13T02:44:23.130Z,62.16
2018-11-13T02:46:51.879Z,62.61
2018-11-13T02:49:20.465Z,62.35
2018-11-13T02:51:49.165Z,62.20
2018-11-13T02:54:17.821Z,62.48
2018-11-13T02:56:46.588Z,62.14
2018-11-13T02:59:15.340Z,62.11
2018-11-13T03:01:44.011Z,61.85
2018-11-13T03:04:12.806Z,62.05
2018-11-13T03:06:41.593Z,62.05
2018-11-13T03:09:10.421Z,61.89
2018-11-13T03:11:39.246Z,61.77
2018-11-13T03:14:08.041Z,62.04
2018-11-13T03:16:36.714Z,62.00
2018-11-13T03:19:05.783Z,61.64
2018-11-13T03:21:34.536Z,61.86
2018-11-13T03:24:03.387Z,61.67
2018-11-13T03:26:32.220Z,61.74
2018-11-13T03:29:00.917Z,62.05
2018-11-13T03:31:29.928Z,61.85
2018-11-13T03:33:58.530Z,61.88
2018-11-13T03:36:27.209Z,61.76
2018-11-13T03:38:55.910Z,61.87
2018-11-13T03:41:24.868Z,61.38
2018-11-13T03:43:53.729Z,62.03
2018-11-13T03:46:22.458Z,61.65
2018-11-13T03:48:51.092Z,61.81
2018-11-13T03:51:19.728Z,61.76
2018-11-13T03:53:48.408Z,61.33
2018-11-13T03:56:17.083Z,61.67
2018-11-13T03:58:45.720Z,62.13
2018-11-13T04:01:14.699Z,61.37
2018-11-13T04:03:43.471Z,61.96
2018-11-13T04:06:12.131Z,61.54
2018-11-13T04:08:40.750Z,61.76
2018-11-13T04:11:09.591Z,61.50
2018-11-13T04:13:38.260Z,61.65
2018-11-13T04:16:06.793Z,61.59
2018-11-13T04:18:35.589Z,61.09
2018-11-13T04:21:04.956Z,61.36
2018-11-13T04:23:35.762Z,60.90
2018-11-13T04:26:04.456Z,61.35
2018-11-13T04:28:33.280Z,60.86
2018-11-13T04:31:01.980Z,60.99
2018-11-13T04:33:30.895Z,60.76
2018-11-13T04:35:59.677Z,60.72
2018-11-13T04:38:28.415Z,60.98
2018-11-13T04:40:57.050Z,60.45
2018-11-13T04:43:25.722Z,60.88
2018-11-13T04:45:54.476Z,60.07
2018-11-13T04:48:23.328Z,60.15
2018-11-13T04:50:52.064Z,60.09
2018-11-13T04:53:20.932Z,60.02
2018-11-13T04:55:49.781Z,60.26
2018-11-13T04:58:18.519Z,59.87
2018-11-13T05:00:47.252Z,60.45
2018-11-13T05:03:15.924Z,59.90
2018-11-13T05:05:44.614Z,59.78
2018-11-13T05:08:13.339Z,59.88
2018-11-13T05:10:42.155Z,59.75
2018-11-13T05:13:10.886Z,59.38
2018-11-13T05:15:39.650Z,59.64
2018-11-13T05:18:08.326Z,59.86
2018-11-13T05:20:37.046Z,59.83
2018-11-13T05:23:05.939Z,59.95
2018-11-13T05:25:34.547Z,60.38
2018-11-13T05:28:03.201Z,60.45
2018-11-13T05:30:31.844Z,60.35
2018-11-13T05:33:00.531Z,60.24
2018-11-13T05:35:29.173Z,59.68
2018-11-13T05:37:57.806Z,59.86
2018-11-13T05:40:26.512Z,60.24
2018-11-13T05:42:55.514Z,60.17
2018-11-13T05:45:25.475Z,59.76
2018-11-13T05:47:54.192Z,59.21
2018-11-13T05:50:23.632Z,59.35
2018-11-13T05:52:53.543Z,59.58
2018-11-13T05:55:22.400Z,59.50
2018-11-13T05:57:51.449Z,59.17
2018-11-13T06:00:25.156Z,59.04
2018-11-13T06:02:53.895Z,59.13
2018-11-13T06:05:22.790Z,59.21
2018-11-13T06:07:51.574Z,59.32
2018-11-13T06:10:20.323Z,58.99
2018-11-13T06:12:49.138Z,59.03
2018-11-13T06:15:18.101Z,59.67
2018-11-13T06:17:46.916Z,59.22
2018-11-13T06:20:17.094Z,59.26
2018-11-13T06:22:46.091Z,59.41
2018-11-13T06:25:16.063Z,59.29
2018-11-13T06:27:45.808Z,59.26
2018-11-13T06:30:18.207Z,59.50
2018-11-13T06:32:47.478Z,59.33
2018-11-13T06:35:21.472Z,59.56
2018-11-13T06:37:50.042Z,59.47
2018-11-13T06:40:19.184Z,59.56
2018-11-13T06:42:47.743Z,59.28
2018-11-13T06:45:17.777Z,58.50
2018-11-13T06:47:47.120Z,58.74
2018-11-13T06:50:15.773Z,59.21
2018-11-13T06:52:45.122Z,58.66
2018-11-13T06:55:19.642Z,58.80
2018-11-13T06:57:48.374Z,59.13
2018-11-13T07:00:17.169Z,59.06
2018-11-13T07:02:45.893Z,59.06
2018-11-13T07:05:16.211Z,59.08
2018-11-13T07:07:45.456Z,59.39
2018-11-13T07:10:17.122Z,59.52
2018-11-13T07:12:46.922Z,59.14
2018-11-13T07:15:22.679Z,59.62
2018-11-13T07:17:52.783Z,59.45
2018-11-13T07:20:24.403Z,59.64
2018-11-13T07:22:53.031Z,59.31
2018-11-13T07:25:21.980Z,59.63
2018-11-13T07:27:50.586Z,59.50
2018-11-13T07:30:19.940Z,59.22
2018-11-13T07:32:48.442Z,59.09
2018-11-13T07:35:18.021Z,58.46
2018-11-13T07:37:48.098Z,58.89
2018-11-13T07:40:16.648Z,58.69
2018-11-13T07:42:45.205Z,58.84
2018-11-13T07:45:14.771Z,58.59
2018-11-13T07:47:44.376Z,57.83
2018-11-13T07:50:13.568Z,57.79
2018-11-13T07:52:42.137Z,56.77
2018-11-13T07:55:11.666Z,56.86
2018-11-13T07:57:40.202Z,56.90
2018-11-13T08:00:11.884Z,56.41
2018-11-13T08:02:40.995Z,56.00
2018-11-13T08:05:09.584Z,56.78
2018-11-13T08:07:38.102Z,56.29
2018-11-13T08:10:07.454Z,55.69
2018-11-13T08:12:35.919Z,56.10
2018-11-13T08:15:04.566Z,56.02
2018-11-13T08:17:33.035Z,55.74
2018-11-13T08:20:01.557Z,55.95
2018-11-13T08:22:30.127Z,55.19
2018-11-13T08:24:58.608Z,56.01
2018-11-13T08:27:27.023Z,55.39
2018-11-13T08:29:55.499Z,55.34
2018-11-13T08:32:24.144Z,54.74
2018-11-13T08:34:52.749Z,54.99
2018-11-13T08:37:21.351Z,54.70
2018-11-13T08:39:49.795Z,54.32
2018-11-13T08:42:18.230Z,54.07
2018-11-13T08:44:47.059Z,53.71
2018-11-13T08:47:15.618Z,54.43
2018-11-13T08:49:44.283Z,53.41
2018-11-13T08:52:12.721Z,52.79
2018-11-13T08:54:41.223Z,51.70
2018-11-13T08:57:09.684Z,49.58
2018-11-13T08:59:38.248Z,47.17
2018-11-13T09:02:07.059Z,45.69
2018-11-13T09:04:35.647Z,44.61
2018-11-13T09:07:04.264Z,43.68
2018-11-13T09:09:32.881Z,42.30
2018-11-13T09:12:01.638Z,41.72
2018-11-13T09:14:30.188Z,40.94
2018-11-13T09:16:58.712Z,40.47
2018-11-13T09:19:27.610Z,38.92
2018-11-13T09:21:56.054Z,36.17
2018-11-13T09:24:24.498Z,36.34
2018-11-13T09:26:52.991Z,36.61
2018-11-13T09:29:21.440Z,36.38
2018-11-13T09:31:50.012Z,36.85
2018-11-13T09:34:18.583Z,38.36
2018-11-13T09:36:47.091Z,38.83
2018-11-13T09:39:15.706Z,39.52
2018-11-13T09:41:44.306Z,40.08
2018-11-13T09:44:12.913Z,40.67
2018-11-13T09:46:41.528Z,41.19
2018-11-13T09:49:10.117Z,41.51
2018-11-13T09:51:38.722Z,42.61
2018-11-13T09:54:07.227Z,42.21
2018-11-13T09:56:35.883Z,42.37
2018-11-13T09:59:04.369Z,42.67
2018-11-13T10:01:33.244Z,43.36
2018-11-13T10:04:02.049Z,44.38
2018-11-13T10:06:29.959Z,43.89
2018-11-13T10:08:58.432Z,43.67
2018-11-13T10:11:26.993Z,44.80
2018-11-13T10:13:55.524Z,44.23
2018-11-13T10:16:24.189Z,44.75
2018-11-13T10:18:52.599Z,45.66
2018-11-13T10:21:21.189Z,44.77
2018-11-13T10:23:49.792Z,45.10
2018-11-13T10:26:18.390Z,45.74
2018-11-13T10:28:46.831Z,45.74
2018-11-13T10:31:15.472Z,45.44
2018-11-13T10:33:44.046Z,46.31
2018-11-13T10:36:12.667Z,45.68
2018-11-13T10:38:41.264Z,45.89
2018-11-13T10:41:09.981Z,46.59
2018-11-13T10:43:38.561Z,45.57
2018-11-13T10:46:07.173Z,44.05
2018-11-13T10:48:35.781Z,41.94
2018-11-13T10:51:04.349Z,40.69
2018-11-13T10:53:32.993Z,41.15
2018-11-13T10:56:01.635Z,40.69
2018-11-13T10:58:30.222Z,41.38
2018-11-13T11:01:00.203Z,41.64
2018-11-13T11:03:34.164Z,42.81
2018-11-13T11:06:02.870Z,42.86
2018-11-13T11:08:31.861Z,42.98
2018-11-13T11:11:00.484Z,42.29
2018-11-13T11:13:29.311Z,43.00
2018-11-13T11:15:57.798Z,42.21
2018-11-13T11:18:26.519Z,41.82
2018-11-13T11:20:55.169Z,42.61
2018-11-13T11:23:23.806Z,42.66
2018-11-13T11:25:52.467Z,42.05
2018-11-13T11:28:20.996Z,41.80
2018-11-13T11:30:49.512Z,42.31
2018-11-13T11:33:18.163Z,42.20
2018-11-13T11:35:47.706Z,41.83
2018-11-13T11:38:16.179Z,42.09
2018-11-13T11:40:45.674Z,41.80
2018-11-13T11:43:14.188Z,41.68
2018-11-13T11:45:42.884Z,42.62
2018-11-13T11:48:11.942Z,42.70
2018-11-13T11:50:40.636Z,42.54
2018-11-13T11:53:09.117Z,42.82
2018-11-13T11:55:37.900Z,42.94
2018-11-13T11:58:06.379Z,43.41
2018-11-13T12:00:36.335Z,43.25
2018-11-13T12:03:05.608Z,43.12
2018-11-13T12:05:34.280Z,42.87
2018-11-13T12:08:03.028Z,43.18
2018-11-13T12:10:31.647Z,43.89
2018-11-13T12:13:00.187Z,43.75
2018-11-13T12:15:28.686Z,43.92
2018-11-13T12:17:57.304Z,44.04
2018-11-13T12:20:26.007Z,44.20
2018-11-13T12:22:54.528Z,44.38
2018-11-13T12:25:22.986Z,44.71
2018-11-13T12:27:51.588Z,45.03
2018-11-13T12:30:21.904Z,45.16
2018-11-13T12:32:51.384Z,45.38
2018-11-13T12:35:21.322Z,45.29
2018-11-13T12:37:51.734Z,45.09
2018-11-13T12:40:22.334Z,45.53
2018-11-13T12:42:52.865Z,45.19
2018-11-13T12:45:22.045Z,45.31
2018-11-13T12:47:51.015Z,44.80
2018-11-13T12:50:21.015Z,44.52
2018-11-13T12:52:49.821Z,43.38
2018-11-13T12:55:23.626Z,43.22
2018-11-13T12:57:52.262Z,43.68
2018-11-13T13:00:24.340Z,43.31
2018-11-13T13:02:52.979Z,42.86
2018-11-13T13:05:21.669Z,42.65
2018-11-13T13:07:50.331Z,42.79
2018-11-13T13:10:19.850Z,42.83
2018-11-13T13:12:48.549Z,42.83
2018-11-13T13:15:18.879Z,42.99
2018-11-13T13:17:47.622Z,42.68
2018-11-13T13:20:19.391Z,43.77
2018-11-13T13:22:49.015Z,43.41
2018-11-13T13:25:18.410Z,43.68
2018-11-13T13:27:49.214Z,43.52
2018-11-13T13:30:22.128Z,44.09
2018-11-13T13:32:51.064Z,44.43
2018-11-13T13:36:09.026Z,44.56
2018-11-13T13:38:38.884Z,44.84
2018-11-13T13:41:07.760Z,45.05
2018-11-13T13:43:36.716Z,44.27
2018-11-13T13:46:05.646Z,44.66
2018-11-13T13:48:34.672Z,44.19
2018-11-13T13:51:03.381Z,45.02
2018-11-13T13:53:32.829Z,44.30
2018-11-13T13:56:01.455Z,44.71
2018-11-13T13:58:30.107Z,44.18
2018-11-13T14:00:59.079Z,44.73
2018-11-13T14:03:27.858Z,44.63
2018-11-13T14:05:56.540Z,44.31
2018-11-13T14:08:25.492Z,45.30
2018-11-13T14:10:54.407Z,44.76
2018-11-13T14:13:23.190Z,44.90
2018-11-13T14:15:52.091Z,45.26
2018-11-13T14:18:21.087Z,44.92
2018-11-13T14:20:50.033Z,45.30
2018-11-13T14:23:19.313Z,45.54
2018-11-13T14:25:48.423Z,45.33
2018-11-13T14:28:17.363Z,45.94
2018-11-13T14:30:46.491Z,46.47
2018-11-13T14:33:15.701Z,45.70
2018-11-13T14:35:45.025Z,46.05
2018-11-13T14:38:14.216Z,46.42
2018-11-13T14:40:45.150Z,46.69
2018-11-13T14:43:14.294Z,46.50
2018-11-13T14:45:43.470Z,46.50
2018-11-13T14:48:12.747Z,45.70
2018-11-13T14:50:41.803Z,46.15
2018-11-13T14:53:11.035Z,46.19
2018-11-13T14:55:41.486Z,46.30
2018-11-13T14:58:11.852Z,46.90
2018-11-13T15:00:41.320Z,46.62
2018-11-13T15:03:12.208Z,47.89
2018-11-13T15:05:41.606Z,47.68
2018-11-13T15:08:10.751Z,47.72
2018-11-13T15:10:55.554Z,47.57
2018-11-13T15:13:25.539Z,47.38
2018-11-13T15:15:54.140Z,47.46
2018-11-13T15:18:22.846Z,47.28
2018-11-13T15:20:52.435Z,48.00
2018-11-13T15:23:21.509Z,47.45
2018-11-13T15:25:51.615Z,48.04
2018-11-13T15:28:20.437Z,48.03
2018-11-13T15:30:50.279Z,48.37
2018-11-13T15:33:23.665Z,48.46
2018-11-13T15:35:52.257Z,48.26
2018-11-13T15:38:21.223Z,48.13
2018-11-13T15:40:49.903Z,49.12
2018-11-13T15:43:18.743Z,48.74
2018-11-13T15:45:47.481Z,49.30
2018-11-13T15:48:16.929Z,48.86
2018-11-13T15:50:45.897Z,49.16
2018-11-13T15:53:14.684Z,49.12
2018-11-13T15:55:43.386Z,49.57
2018-11-13T15:58:12.170Z,49.02
2018-11-13T16:00:42.572Z,49.81
2018-11-13T16:03:21.021Z,49.21
2018-11-13T16:05:52.663Z,49.43
2018-11-13T16:08:21.774Z,49.81
2018-11-13T16:10:51.642Z,50.10
2018-11-13T16:13:20.817Z,50.31
2018-11-13T16:15:49.783Z,50.13
2018-11-13T16:18:21.061Z,50.81
2018-11-13T16:20:49.932Z,50.28
2018-11-13T16:23:18.785Z,50.43
2018-11-13T16:25:47.697Z,50.91
2018-11-13T16:28:17.211Z,50.36
2018-11-13T16:30:46.223Z,50.99
2018-11-13T16:33:15.345Z,50.52
2018-11-13T16:35:44.687Z,50.84
2018-11-13T16:38:14.396Z,50.60
2018-11-13T16:40:43.572Z,51.12
2018-11-13T16:43:12.293Z,50.91
2018-11-13T16:45:41.172Z,51.03
2018-11-13T16:48:10.214Z,51.47
2018-11-13T16:50:42.958Z,51.14
2018-11-13T16:53:11.870Z,51.35
2018-11-13T16:55:45.871Z,50.88
2018-11-13T16:58:15.895Z,51.05
2018-11-13T17:00:44.855Z,51.46
2018-11-13T17:03:13.623Z,51.51
2018-11-13T17:05:42.368Z,50.30
2018-11-13T17:08:11.932Z,50.80
2018-11-13T17:10:42.093Z,51.34
2018-11-13T17:13:10.943Z,51.18
2018-11-13T17:15:40.149Z,51.34
2018-11-13T17:18:08.917Z,51.86
2018-11-13T17:20:37.925Z,51.23
2018-11-13T17:23:06.880Z,52.08
2018-11-13T17:25:37.049Z,51.72
2018-11-13T17:28:06.630Z,51.98
2018-11-13T17:30:36.332Z,52.77
2018-11-13T17:33:07.692Z,52.31
2018-11-13T17:35:38.182Z,53.04
2018-11-13T17:38:07.322Z,53.00
2018-11-13T17:40:36.825Z,52.99
2018-11-13T17:43:06.516Z,53.28
2018-11-13T17:45:36.463Z,53.37
2018-11-13T17:48:05.470Z,53.34
2018-11-13T17:50:37.552Z,53.51
2018-11-13T17:53:07.480Z,53.69
2018-11-13T17:55:36.665Z,53.75
2018-11-13T17:58:07.907Z,54.05
2018-11-13T18:00:38.484Z,53.35
2018-11-13T18:03:08.034Z,54.27
2018-11-13T18:05:37.140Z,54.07
2018-11-13T18:08:06.545Z,54.10
2018-11-13T18:10:36.384Z,54.22
2018-11-13T18:13:05.571Z,54.33
2018-11-13T18:15:34.366Z,54.72
2018-11-13T18:18:03.246Z,54.26
2018-11-13T18:20:33.196Z,54.56
2018-11-13T18:23:01.949Z,54.39
2018-11-13T18:25:30.843Z,54.66
2018-11-13T18:28:00.492Z,54.73
2018-11-13T18:30:30.261Z,54.65
2018-11-13T18:32:59.516Z,54.50
2018-11-13T18:35:29.601Z,55.00
2018-11-13T18:38:00.730Z,55.28
2018-11-13T18:40:29.994Z,55.37
2018-11-13T18:42:59.846Z,55.29
2018-11-13T18:45:31.609Z,55.47
2018-11-13T18:48:01.327Z,55.91
2018-11-13T18:50:31.052Z,55.94
2018-11-13T18:52:59.789Z,55.64
2018-11-13T18:55:28.412Z,55.78
2018-11-13T18:57:57.168Z,55.40
2018-11-13T19:00:27.577Z,55.03
2018-11-13T19:02:56.397Z,55.30
2018-11-13T19:05:26.571Z,54.81
2018-11-13T19:07:57.115Z,54.90
2018-11-13T19:10:33.120Z,54.73
2018-11-13T19:13:02.772Z,54.84
2018-11-13T19:15:32.928Z,54.68
2018-11-13T19:18:01.624Z,54.82
2018-11-13T19:20:30.462Z,54.90
2018-11-13T19:22:59.082Z,54.25
2018-11-13T19:25:29.035Z,54.22
2018-11-13T19:27:57.994Z,54.00
2018-11-13T19:30:26.714Z,53.49
2018-11-13T19:32:55.384Z,53.68
2018-11-13T19:35:24.127Z,53.91
2018-11-13T19:37:52.545Z,53.32
2018-11-13T19:40:24.369Z,53.61
2018-11-13T19:42:53.594Z,53.90
2018-11-13T19:45:22.476Z,53.59
2018-11-13T19:47:51.059Z,53.57
2018-11-13T19:50:22.150Z,54.07
2018-11-13T19:52:50.870Z,53.52
2018-11-13T19:55:20.429Z,53.21
2018-11-13T19:57:49.466Z,53.81
2018-11-13T20:00:34.816Z,53.09
2018-11-13T20:03:04.660Z,53.41
2018-11-13T20:05:33.491Z,53.40
2018-11-13T20:08:02.192Z,53.37
2018-11-13T20:10:32.049Z,53.71
2018-11-13T20:13:02.035Z,53.49
2018-11-13T20:15:31.397Z,54.26
2018-11-13T20:18:00.008Z,53.97
2018-11-13T20:20:29.924Z,54.34
2018-11-13T20:22:59.494Z,54.35
2018-11-13T20:25:29.514Z,54.18
2018-11-13T20:27:58.144Z,54.54
2018-11-13T20:30:28.556Z,54.49
2018-11-13T20:32:57.228Z,54.94
2018-11-13T20:35:25.930Z,55.17
2018-11-13T20:37:56.021Z,55.15
2018-11-13T20:40:27.212Z,55.54
2018-11-13T20:42:57.231Z,55.00
2018-11-13T20:45:26.020Z,55.46
2018-11-13T20:47:54.657Z,55.85
2018-11-13T20:50:25.237Z,55.93
2018-11-13T20:52:53.962Z,55.72
2018-11-13T20:55:22.685Z,55.68
2018-11-13T20:57:51.341Z,55.98
2018-11-13T21:00:21.818Z,55.74
2018-11-13T21:02:50.732Z,56.18
2018-11-13T21:05:19.456Z,56.23
2018-11-13T21:07:48.187Z,56.13
2018-11-13T21:10:18.618Z,56.60
2018-11-13T21:12:47.781Z,56.74
2018-11-13T21:15:18.593Z,56.46
2018-11-13T21:17:47.284Z,56.71
2018-11-13T21:20:17.317Z,56.90
2018-11-13T21:22:46.092Z,56.21
2018-11-13T21:25:16.249Z,56.66
2018-11-13T21:27:44.937Z,57.08
2018-11-13T21:30:17.112Z,57.20
2018-11-13T21:32:46.700Z,56.71
2018-11-13T21:35:15.652Z,56.92
2018-11-13T21:37:45.569Z,57.33
2018-11-13T21:40:15.343Z,57.23
2018-11-13T21:42:45.069Z,57.59
2018-11-13T21:45:14.213Z,57.56
2018-11-13T21:47:43.319Z,57.13
2018-11-13T21:50:14.006Z,57.50
2018-11-13T21:52:42.892Z,57.49
2018-11-13T21:55:15.149Z,57.26
2018-11-13T21:57:43.840Z,57.69
2018-11-13T22:00:20.454Z,57.71
2018-11-13T22:03:05.320Z,57.51
2018-11-13T22:05:34.823Z,57.75
2018-11-13T22:08:03.477Z,57.80
2018-11-13T22:10:32.068Z,57.83
2018-11-13T22:13:00.608Z,58.19
2018-11-13T22:15:29.851Z,57.75
2018-11-13T22:17:58.448Z,58.35
2018-11-13T22:20:27.017Z,57.87
2018-11-13T22:22:57.003Z,58.23
2018-11-13T22:25:26.341Z,58.17
2018-11-13T22:27:56.331Z,57.90
2018-11-13T22:30:26.113Z,58.00
2018-11-13T22:32:54.777Z,58.11
2018-11-13T22:35:23.750Z,58.27
2018-11-13T22:37:52.382Z,58.55
2018-11-13T22:40:22.604Z,58.37
2018-11-13T22:42:51.445Z,58.18
2018-11-13T22:45:21.348Z,58.31
2018-11-13T22:47:50.088Z,58.07
2018-11-13T22:50:20.181Z,58.26
2018-11-13T22:52:49.162Z,58.22
2018-11-13T22:55:18.264Z,58.20
2018-11-13T22:57:47.704Z,58.46
2018-11-13T23:00:23.662Z,58.32
2018-11-13T23:02:53.406Z,58.83
2018-11-13T23:05:22.091Z,58.76
2018-11-13T23:07:50.818Z,58.90
2018-11-13T23:10:19.748Z,58.57
2018-11-13T23:12:48.457Z,58.63
2018-11-13T23:15:19.605Z,59.04
2018-11-13T23:17:48.226Z,58.95
2018-11-13T23:20:18.224Z,59.33
2018-11-13T23:22:46.776Z,59.03
2018-11-13T23:25:16.643Z,59.10
2018-11-13T23:27:46.202Z,59.13
2018-11-13T23:30:22.366Z,59.27
2018-11-13T23:32:51.180Z,58.68
2018-11-13T23:35:20.045Z,58.93
2018-11-13T23:37:49.989Z,58.63
2018-11-13T23:40:20.008Z,58.55
2018-11-13T23:42:49.050Z,58.54
2018-11-13T23:45:18.797Z,58.66
2018-11-13T23:47:47.997Z,58.37
2018-11-13T23:50:16.679Z,58.69
2018-11-13T23:52:46.019Z,58.75
2018-11-13T23:55:15.177Z,58.51
2018-11-13T23:57:44.373Z,58.55
